Time;durP1;ratioP1;P1;durP2;ratioP2;P2;SDS_P1;SDS_P2;PMS_P1;PMS_P2;Temp;Humidity;BMP_temperature;BMP_pressure;BME280_temperature;BME280_humidity;BME280_pressure;Samples;Min_cycle;Max_cycle;Signal;HPM_P1;HPM_P2
2023/05/03 00:01:36;;;;;;;4.77;2.20;;;8.10;99.90;;;;;;4842983;29;20243;-61
2023/05/03 00:04:05;;;;;;;5.93;1.80;;;7.90;99.90;;;;;;4843267;29;20236;-61
2023/05/03 00:06:33;;;;;;;6.10;1.80;;;7.90;99.90;;;;;;4843086;29;20236;-61
2023/05/03 00:09:01;;;;;;;6.53;1.80;;;7.80;99.90;;;;;;4843191;29;20235;-62
2023/05/03 00:11:29;;;;;;;3.00;1.63;;;7.80;99.90;;;;;;4843313;29;20282;-61
2023/05/03 00:13:57;;;;;;;4.80;1.80;;;7.70;99.90;;;;;;4843072;29;20322;-61
2023/05/03 00:16:25;;;;;;;3.67;1.70;;;7.80;99.90;;;;;;4836266;29;20288;-61
2023/05/03 00:18:55;;;;;;;3.77;1.77;;;7.80;99.90;;;;;;4833079;29;20231;-61
2023/05/03 00:21:23;;;;;;;6.77;1.77;;;7.80;99.90;;;;;;4825422;29;20241;-61
2023/05/03 00:23:51;;;;;;;2.77;1.50;;;7.70;99.90;;;;;;4825076;29;20243;-61
2023/05/03 00:26:21;;;;;;;5.70;1.73;;;7.90;99.90;;;;;;4824461;29;20243;-61
2023/05/03 00:28:49;;;;;;;4.97;1.60;;;7.80;99.90;;;;;;4824428;29;20714;-61
2023/05/03 00:31:18;;;;;;;4.13;1.60;;;7.80;99.90;;;;;;4824315;29;20717;-61
2023/05/03 00:33:46;;;;;;;4.20;1.90;;;7.70;99.90;;;;;;4824422;29;20296;-61
2023/05/03 00:36:16;;;;;;;4.43;1.60;;;7.60;99.90;;;;;;4823390;29;20240;-61
2023/05/03 00:38:44;;;;;;;2.43;1.63;;;7.60;99.90;;;;;;4824093;29;20696;-61
2023/05/03 00:41:12;;;;;;;3.13;1.60;;;7.60;99.90;;;;;;4823252;29;20708;-61
2023/05/03 00:43:41;;;;;;;4.40;1.53;;;7.50;99.90;;;;;;4833099;29;20237;-61
2023/05/03 00:46:10;;;;;;;4.50;2.00;;;7.50;99.90;;;;;;4835943;29;20220;-61
2023/05/03 00:48:45;;;;;;;5.20;1.70;;;7.30;99.90;;;;;;4830648;29;20243;-61
2023/05/03 00:51:15;;;;;;;3.53;1.93;;;7.30;99.90;;;;;;4842426;29;20232;-61
2023/05/03 00:53:43;;;;;;;3.07;1.50;;;7.30;99.90;;;;;;4842306;29;20263;-61
2023/05/03 00:56:16;;;;;;;4.50;1.63;;;7.30;99.90;;;;;;4841221;29;20286;-61
2023/05/03 00:58:44;;;;;;;3.33;1.80;;;7.30;99.90;;;;;;4842214;29;20241;-61
2023/05/03 01:01:14;;;;;;;3.90;1.90;;;7.10;99.90;;;;;;4842190;29;20742;-55
2023/05/03 01:03:42;;;;;;;4.53;1.63;;;7.20;99.90;;;;;;4868972;24;20251;-59
2023/05/03 01:06:17;;;;;;;3.33;1.80;;;7.20;99.90;;;;;;4824807;29;20688;-57
2023/05/03 01:08:50;;;;;;;3.17;2.00;;;7.20;99.90;;;;;;4824233;29;20254;-57
2023/05/03 01:11:33;;;;;;;3.93;1.90;;;7.00;99.90;;;;;;4824543;29;20232;-57
2023/05/03 01:14:10;;;;;;;5.30;2.27;;;7.00;99.90;;;;;;4824404;29;20231;-57
2023/05/03 01:16:43;;;;;;;6.57;1.90;;;6.90;99.90;;;;;;4824262;29;20226;-57
2023/05/03 01:19:25;;;;;;;3.83;1.80;;;6.80;99.90;;;;;;4824401;29;20227;-57
2023/05/03 01:22:03;;;;;;;4.43;1.93;;;6.70;99.90;;;;;;4824408;29;20569;-57
2023/05/03 01:24:35;;;;;;;3.27;1.90;;;6.70;99.90;;;;;;4824271;29;20280;-57
2023/05/03 01:27:04;;;;;;;5.03;2.07;;;6.70;99.90;;;;;;4824248;29;20232;-57
2023/05/03 01:29:32;;;;;;;3.83;2.23;;;6.80;99.90;;;;;;4824061;29;20242;-57
2023/05/03 01:32:03;;;;;;;2.20;1.70;;;6.70;99.90;;;;;;4823816;29;20243;-57
2023/05/03 01:34:42;;;;;;;4.43;2.23;;;6.60;99.90;;;;;;4823994;29;20236;-57
2023/05/03 01:37:13;;;;;;;2.77;1.80;;;6.60;99.90;;;;;;4824202;29;20650;-57
2023/05/03 01:39:48;;;;;;;4.63;2.10;;;6.50;99.90;;;;;;4824570;29;20700;-57
2023/05/03 01:42:19;;;;;;;4.60;2.10;;;6.50;99.90;;;;;;4827848;29;20223;-56
2023/05/03 01:44:49;;;;;;;3.70;2.17;;;6.60;99.90;;;;;;4827763;29;20306;-57
2023/05/03 01:47:17;;;;;;;6.60;2.20;;;6.80;99.90;;;;;;4827782;29;20307;-57
2023/05/03 01:49:45;;;;;;;5.20;2.23;;;6.90;99.90;;;;;;4827436;29;20236;-57
2023/05/03 01:52:15;;;;;;;5.40;2.20;;;6.90;99.90;;;;;;4827733;29;20247;-57
2023/05/03 01:54:44;;;;;;;3.93;2.47;;;7.00;99.90;;;;;;4826156;29;20232;-57
2023/05/03 01:57:12;;;;;;;4.87;2.00;;;7.00;99.90;;;;;;4826249;29;20617;-57
2023/05/03 01:59:43;;;;;;;5.97;2.20;;;7.00;99.90;;;;;;4826071;29;20263;-57
2023/05/03 02:02:11;;;;;;;4.50;2.17;;;7.20;99.90;;;;;;4840884;29;21546;-57
2023/05/03 02:04:41;;;;;;;6.40;1.90;;;7.00;99.90;;;;;;4825951;29;20700;-57
2023/05/03 02:07:09;;;;;;;3.57;2.10;;;7.10;99.90;;;;;;4827541;29;20239;-57
2023/05/03 02:09:37;;;;;;;4.03;2.30;;;7.00;99.90;;;;;;4826981;29;20718;-57
2023/05/03 02:12:06;;;;;;;5.57;2.40;;;7.10;99.90;;;;;;4827235;29;20228;-57
2023/05/03 02:14:34;;;;;;;4.20;2.30;;;7.10;99.90;;;;;;4825741;29;20256;-57
2023/05/03 02:17:03;;;;;;;4.50;2.10;;;7.00;99.90;;;;;;4827141;29;20740;-57
2023/05/03 02:19:31;;;;;;;5.37;2.17;;;6.90;99.90;;;;;;4826907;29;20228;-57
2023/05/03 02:22:00;;;;;;;3.10;1.80;;;6.80;99.90;;;;;;4827069;29;20599;-57
2023/05/03 02:24:30;;;;;;;5.80;2.20;;;6.80;99.90;;;;;;4826838;29;20867;-57
2023/05/03 02:26:58;;;;;;;3.43;2.00;;;6.90;99.90;;;;;;4826008;29;20707;-56
2023/05/03 02:29:26;;;;;;;4.97;2.20;;;6.80;99.90;;;;;;4826727;29;20236;-57
2023/05/03 02:31:54;;;;;;;4.80;2.13;;;6.70;99.90;;;;;;4826562;29;20653;-57
2023/05/03 02:34:24;;;;;;;7.03;2.17;;;6.70;99.90;;;;;;4825576;29;20236;-57
2023/05/03 02:36:52;;;;;;;4.60;2.80;;;6.80;99.90;;;;;;4825573;29;20712;-57
2023/05/03 02:39:21;;;;;;;5.00;2.10;;;6.80;99.90;;;;;;4825483;29;20239;-57
2023/05/03 02:41:50;;;;;;;3.20;2.60;;;7.00;99.90;;;;;;4825555;29;20735;-57
2023/05/03 02:44:18;;;;;;;4.23;2.00;;;7.00;99.90;;;;;;4826673;29;20638;-57
2023/05/03 02:46:46;;;;;;;3.90;1.93;;;7.10;99.90;;;;;;4826505;29;20696;-57
2023/05/03 02:49:17;;;;;;;3.00;2.03;;;7.20;99.90;;;;;;4826415;29;20234;-58
2023/05/03 02:51:46;;;;;;;7.20;2.10;;;7.00;99.90;;;;;;4826183;29;20235;-56
2023/05/03 02:54:14;;;;;;;3.97;1.97;;;7.10;99.90;;;;;;4826672;29;20255;-57
2023/05/03 02:56:43;;;;;;;3.20;2.13;;;7.00;99.90;;;;;;4825132;29;20304;-57
2023/05/03 02:59:12;;;;;;;4.07;2.00;;;6.90;99.90;;;;;;4826384;29;20231;-57
2023/05/03 03:01:40;;;;;;;4.00;2.13;;;7.20;99.90;;;;;;4825844;29;20273;-57
2023/05/03 03:04:09;;;;;;;3.73;2.00;;;7.40;99.90;;;;;;4824966;29;20305;-57
2023/05/03 03:06:37;;;;;;;2.63;2.10;;;7.50;99.90;;;;;;4826197;29;20696;-57
2023/05/03 03:09:07;;;;;;;3.90;2.40;;;7.60;99.90;;;;;;4824989;29;20755;-57
2023/05/03 03:11:35;;;;;;;2.80;1.90;;;7.70;99.90;;;;;;4824810;29;20267;-57
2023/05/03 03:14:03;;;;;;;3.87;2.17;;;7.60;99.90;;;;;;4826227;29;20223;-57
2023/05/03 03:16:31;;;;;;;6.50;2.27;;;7.70;99.90;;;;;;4825954;29;20692;-57
2023/05/03 03:18:59;;;;;;;4.80;2.40;;;7.40;99.90;;;;;;4824892;29;20326;-57
2023/05/03 03:21:28;;;;;;;2.07;1.87;;;7.30;99.90;;;;;;4824711;29;20700;-56
2023/05/03 03:23:56;;;;;;;4.07;2.10;;;7.30;99.90;;;;;;4826329;29;20247;-57
2023/05/03 03:26:26;;;;;;;4.60;2.10;;;7.30;99.90;;;;;;4824805;29;20356;-56
2023/05/03 03:28:54;;;;;;;3.47;2.00;;;7.40;99.90;;;;;;4825894;29;20582;-57
2023/05/03 03:31:24;;;;;;;5.77;2.63;;;7.50;99.90;;;;;;4824284;29;20585;-57
2023/05/03 03:33:55;;;;;;;6.93;2.37;;;7.50;99.90;;;;;;4824729;29;20315;-57
2023/05/03 03:36:26;;;;;;;2.63;2.10;;;7.30;99.90;;;;;;4824494;29;20236;-57
2023/05/03 03:38:55;;;;;;;3.17;2.13;;;7.20;99.90;;;;;;4824568;29;20289;-57
2023/05/03 03:41:26;;;;;;;4.83;2.20;;;7.30;99.90;;;;;;4824509;29;20236;-55
2023/05/03 03:43:56;;;;;;;3.80;2.20;;;7.30;99.90;;;;;;4824465;29;20239;-57
2023/05/03 03:46:25;;;;;;;4.63;2.10;;;7.40;99.90;;;;;;4824396;29;20319;-56
2023/05/03 03:48:56;;;;;;;4.43;2.30;;;7.70;99.90;;;;;;4824348;29;20232;-57
2023/05/03 03:51:27;;;;;;;4.47;2.53;;;7.70;99.90;;;;;;4824378;29;20772;-56
2023/05/03 03:53:55;;;;;;;4.27;2.53;;;7.70;99.90;;;;;;4825631;29;20716;-57
2023/05/03 03:56:28;;;;;;;5.20;2.30;;;7.40;99.90;;;;;;4824570;29;20243;-56
2023/05/03 03:58:57;;;;;;;3.73;2.03;;;7.20;99.90;;;;;;4824260;29;20243;-57
2023/05/03 04:01:25;;;;;;;2.80;2.07;;;7.20;99.90;;;;;;4823044;29;20268;-56
2023/05/03 04:03:53;;;;;;;4.23;2.20;;;7.30;99.90;;;;;;4825131;29;20241;-57
2023/05/03 04:06:21;;;;;;;3.87;2.53;;;7.20;99.90;;;;;;4825440;29;20236;-57
2023/05/03 04:08:50;;;;;;;4.67;2.70;;;7.50;99.90;;;;;;4824077;29;20238;-57
2023/05/03 04:11:20;;;;;;;5.83;2.33;;;7.60;99.90;;;;;;4824070;29;20281;-57
2023/05/03 04:13:55;;;;;;;5.63;2.57;;;7.60;99.90;;;;;;4824040;29;20607;-57
2023/05/03 04:16:23;;;;;;;7.27;3.00;;;7.80;99.90;;;;;;4824046;29;20232;-57
2023/05/03 04:18:51;;;;;;;5.30;2.60;;;7.70;99.90;;;;;;4823986;29;20236;-57
2023/05/03 04:21:19;;;;;;;5.47;3.13;;;7.70;99.90;;;;;;4825286;29;20594;-57
2023/05/03 04:23:48;;;;;;;7.20;3.80;;;7.70;99.90;;;;;;4823738;29;20243;-57
2023/05/03 04:26:21;;;;;;;6.57;3.27;;;7.80;99.90;;;;;;4823873;29;20233;-57
2023/05/03 04:29:08;;;;;;;5.93;3.50;;;7.90;99.90;;;;;;4823750;29;20239;-57
2023/05/03 04:31:36;;;;;;;6.30;3.60;;;7.90;99.90;;;;;;4824501;29;20296;-57
2023/05/03 04:34:04;;;;;;;5.37;3.57;;;8.00;99.90;;;;;;4823710;29;20240;-57
2023/05/03 04:36:33;;;;;;;6.10;3.00;;;7.80;99.90;;;;;;4824799;29;20724;-57
2023/05/03 04:39:01;;;;;;;9.30;3.30;;;7.70;99.90;;;;;;4824920;29;20649;-57
2023/05/03 04:41:29;;;;;;;5.60;3.20;;;7.80;99.90;;;;;;4823484;29;20243;-57
2023/05/03 04:43:58;;;;;;;7.47;3.13;;;7.70;99.90;;;;;;4824889;29;20227;-57
2023/05/03 04:46:29;;;;;;;6.40;3.47;;;8.00;99.90;;;;;;4823549;29;20739;-57
2023/05/03 04:48:57;;;;;;;5.57;2.80;;;8.10;99.90;;;;;;4824779;29;20309;-58
2023/05/03 04:51:27;;;;;;;5.83;2.97;;;8.30;99.90;;;;;;4823381;29;20331;-55
2023/05/03 04:53:55;;;;;;;6.17;2.93;;;8.40;99.90;;;;;;4823508;29;20240;-58
2023/05/03 04:56:25;;;;;;;4.93;2.93;;;8.30;99.90;;;;;;4823575;29;20241;-57
2023/05/03 04:58:59;;;;;;;6.10;2.80;;;8.10;99.90;;;;;;4824568;29;20231;-60
2023/05/03 05:01:28;;;;;;;4.60;2.53;;;8.30;99.90;;;;;;4822829;29;20243;-57
2023/05/03 05:04:01;;;;;;;5.00;2.50;;;8.30;99.90;;;;;;4823126;29;20305;-57
2023/05/03 05:06:36;;;;;;;5.17;2.33;;;8.10;99.90;;;;;;4823124;29;20244;-57
2023/05/03 05:09:07;;;;;;;6.77;2.40;;;8.30;99.90;;;;;;4823322;29;20232;-57
2023/05/03 05:11:35;;;;;;;4.60;2.33;;;8.20;99.90;;;;;;4823079;29;20245;-57
2023/05/03 05:14:04;;;;;;;4.03;1.93;;;8.20;99.90;;;;;;4822942;29;20228;-57
2023/05/03 05:16:34;;;;;;;4.10;2.00;;;8.10;99.90;;;;;;4823129;29;20608;-58
2023/05/03 05:19:02;;;;;;;7.27;2.50;;;8.10;99.90;;;;;;4824387;29;20231;-56
2023/05/03 05:21:31;;;;;;;3.43;2.10;;;8.10;99.90;;;;;;4823123;29;20232;-57
2023/05/03 05:23:59;;;;;;;5.27;2.33;;;8.10;99.90;;;;;;4823005;29;20242;-57
2023/05/03 05:26:28;;;;;;;5.90;2.60;;;8.30;99.90;;;;;;4822925;29;20323;-56
2023/05/03 05:28:56;;;;;;;4.83;2.23;;;8.20;99.90;;;;;;4823006;29;20240;-57
2023/05/03 05:31:24;;;;;;;4.23;2.20;;;8.40;99.90;;;;;;4822630;29;20236;-55
2023/05/03 05:33:55;;;;;;;5.33;2.43;;;8.30;99.90;;;;;;4823110;29;20828;-57
2023/05/03 05:36:23;;;;;;;4.00;2.20;;;8.30;99.90;;;;;;4822935;29;20256;-57
2023/05/03 05:38:51;;;;;;;4.03;2.10;;;8.40;99.90;;;;;;4822934;29;20322;-57
2023/05/03 05:41:19;;;;;;;5.43;2.60;;;8.40;99.90;;;;;;4822876;29;20574;-58
2023/05/03 05:43:48;;;;;;;4.80;2.07;;;8.40;99.90;;;;;;4822710;29;20232;-57
2023/05/03 05:46:16;;;;;;;4.23;2.40;;;8.40;99.90;;;;;;4822861;29;20707;-57
2023/05/03 05:48:45;;;;;;;5.40;2.00;;;8.40;99.90;;;;;;4822643;29;20240;-57
2023/05/03 05:51:15;;;;;;;3.57;1.97;;;8.50;99.90;;;;;;4823941;29;20237;-58
2023/05/03 05:53:43;;;;;;;3.27;1.90;;;8.50;99.90;;;;;;4822611;29;20231;-57
2023/05/03 05:56:11;;;;;;;6.63;2.30;;;8.50;99.90;;;;;;4822692;29;20354;-57
2023/05/03 05:58:40;;;;;;;3.03;2.17;;;8.50;99.90;;;;;;4823792;29;20235;-57
2023/05/03 06:01:09;;;;;;;3.27;1.80;;;8.60;99.90;;;;;;4822307;29;20255;-58
2023/05/03 06:03:38;;;;;;;2.37;2.10;;;8.60;99.90;;;;;;4822280;29;20253;-58
2023/05/03 06:06:08;;;;;;;7.27;2.00;;;8.60;99.90;;;;;;4824018;29;20247;-57
2023/05/03 06:08:38;;;;;;;4.93;1.73;;;8.60;99.90;;;;;;4822424;29;20235;-57
2023/05/03 06:11:07;;;;;;;3.83;1.90;;;8.60;99.90;;;;;;4822494;29;20248;-57
2023/05/03 06:13:37;;;;;;;3.87;1.80;;;8.70;99.90;;;;;;4822423;29;20723;-57
2023/05/03 06:16:07;;;;;;;3.93;1.87;;;8.80;99.90;;;;;;4822517;29;20610;-57
2023/05/03 06:18:35;;;;;;;3.70;2.10;;;8.80;99.90;;;;;;4822366;29;20232;-57
2023/05/03 06:21:03;;;;;;;3.80;1.70;;;8.80;99.90;;;;;;4822459;29;20232;-57
2023/05/03 06:23:32;;;;;;;4.37;1.70;;;8.90;99.90;;;;;;4823571;29;20234;-57
2023/05/03 06:26:02;;;;;;;3.93;1.90;;;8.90;99.90;;;;;;4824529;29;20647;-57
2023/05/03 06:28:30;;;;;;;4.43;1.60;;;8.90;99.90;;;;;;4825468;29;20233;-57
2023/05/03 06:31:00;;;;;;;4.10;1.70;;;9.00;99.90;;;;;;4825168;29;20232;-57
2023/05/03 06:33:30;;;;;;;3.93;1.53;;;9.00;99.90;;;;;;4825339;29;20244;-57
2023/05/03 06:35:58;;;;;;;4.90;1.50;;;9.00;99.90;;;;;;4825437;29;20237;-57
2023/05/03 06:38:28;;;;;;;4.87;1.80;;;9.10;99.90;;;;;;4826661;29;20225;-57
2023/05/03 06:40:57;;;;;;;2.23;1.87;;;9.10;99.90;;;;;;4825545;29;20229;-57
2023/05/03 06:43:26;;;;;;;4.57;1.90;;;9.20;99.90;;;;;;4826709;29;20229;-56
2023/05/03 06:46:01;;;;;;;6.27;1.80;;;9.30;99.90;;;;;;4825445;29;20240;-57
2023/05/03 06:48:29;;;;;;;3.47;1.70;;;9.40;99.90;;;;;;4825253;29;20232;-57
2023/05/03 06:50:57;;;;;;;4.70;1.93;;;9.50;99.90;;;;;;4826073;29;20285;-56
2023/05/03 06:53:25;;;;;;;5.83;1.80;;;9.60;99.90;;;;;;4826029;29;20582;-55
2023/05/03 06:55:53;;;;;;;4.23;1.80;;;9.80;99.90;;;;;;4826431;29;20242;-57
2023/05/03 06:58:21;;;;;;;5.97;1.70;;;10.00;99.90;;;;;;4826714;29;20241;-57
2023/05/03 07:00:53;;;;;;;4.63;1.87;;;10.10;99.90;;;;;;4825959;29;20315;-57
2023/05/03 07:03:21;;;;;;;3.13;1.73;;;10.20;99.90;;;;;;4826155;29;20274;-58
2023/05/03 07:05:50;;;;;;;5.40;1.80;;;10.40;99.90;;;;;;4826249;29;20230;-57
2023/05/03 07:08:18;;;;;;;5.53;1.60;;;10.60;99.90;;;;;;4826597;29;20327;-57
2023/05/03 07:10:46;;;;;;;3.80;1.80;;;10.70;99.90;;;;;;4825977;29;20259;-57
2023/05/03 07:13:14;;;;;;;4.43;1.63;;;10.70;99.90;;;;;;4826492;29;20237;-58
2023/05/03 07:15:44;;;;;;;4.73;1.50;;;10.80;99.90;;;;;;4826305;29;20326;-57
2023/05/03 07:18:14;;;;;;;3.33;1.40;;;10.60;99.90;;;;;;4826451;29;20578;-58
2023/05/03 07:20:42;;;;;;;2.30;1.10;;;10.50;99.90;;;;;;4826133;29;20233;-57
2023/05/03 07:23:10;;;;;;;2.43;1.20;;;10.40;99.90;;;;;;4826148;29;20229;-58
2023/05/03 07:25:38;;;;;;;2.13;1.00;;;10.40;99.90;;;;;;4825900;29;20231;-58
2023/05/03 07:28:06;;;;;;;3.87;1.30;;;10.40;99.90;;;;;;4825992;29;20237;-58
2023/05/03 07:30:34;;;;;;;4.03;1.73;;;10.50;99.90;;;;;;4825700;29;20275;-58
2023/05/03 07:33:03;;;;;;;4.87;1.20;;;10.50;99.90;;;;;;4826174;29;20694;-57
2023/05/03 07:35:32;;;;;;;2.90;1.30;;;10.70;99.90;;;;;;4825739;29;20230;-57
2023/05/03 07:38:00;;;;;;;2.73;1.20;;;10.70;99.90;;;;;;4826143;29;20272;-58
2023/05/03 07:40:31;;;;;;;2.07;1.17;;;10.80;99.90;;;;;;4825920;29;20571;-57
2023/05/03 07:43:00;;;;;;;5.23;1.40;;;11.00;99.90;;;;;;4826119;29;20282;-58
2023/05/03 07:45:28;;;;;;;2.43;1.10;;;11.00;99.90;;;;;;4825855;29;20234;-58
2023/05/03 07:47:57;;;;;;;5.57;1.67;;;11.20;99.90;;;;;;4825944;29;20755;-57
2023/05/03 07:50:25;;;;;;;3.40;1.43;;;11.20;99.90;;;;;;4825905;29;20237;-58
2023/05/03 07:52:55;;;;;;;3.10;1.20;;;11.10;99.90;;;;;;4825557;29;20605;-56
2023/05/03 07:55:24;;;;;;;4.23;1.23;;;11.00;99.90;;;;;;4825886;29;20687;-57
2023/05/03 07:57:57;;;;;;;4.03;1.33;;;11.10;99.90;;;;;;4825513;29;20241;-57
2023/05/03 08:00:25;;;;;;;2.50;1.30;;;11.10;99.90;;;;;;4825311;29;20239;-56
2023/05/03 08:02:54;;;;;;;3.27;1.10;;;11.20;99.90;;;;;;4825268;29;20245;-57
2023/05/03 08:05:23;;;;;;;3.17;0.93;;;11.20;99.90;;;;;;4825393;29;20271;-57
2023/05/03 08:07:51;;;;;;;3.23;1.10;;;11.30;99.90;;;;;;4825418;29;20262;-58
2023/05/03 08:10:21;;;;;;;3.23;1.03;;;11.30;99.90;;;;;;4825343;29;20234;-57
2023/05/03 08:12:50;;;;;;;3.47;1.20;;;11.10;99.90;;;;;;4825162;29;20247;-56
2023/05/03 08:15:18;;;;;;;3.43;1.30;;;11.00;99.90;;;;;;4825317;29;20229;-57
2023/05/03 08:17:46;;;;;;;2.87;1.20;;;10.80;99.90;;;;;;4825425;29;20707;-57
2023/05/03 08:20:15;;;;;;;2.67;1.20;;;10.70;99.90;;;;;;4825320;29;20233;-58
2023/05/03 08:22:45;;;;;;;5.30;1.23;;;10.70;99.90;;;;;;4825319;29;20237;-57
2023/05/03 08:25:15;;;;;;;3.00;1.23;;;10.60;99.90;;;;;;4825108;29;20239;-57
2023/05/03 08:27:45;;;;;;;5.17;1.30;;;10.60;99.90;;;;;;4825235;29;20694;-57
2023/05/03 08:30:13;;;;;;;2.43;1.10;;;10.60;99.90;;;;;;4824968;29;20238;-57
2023/05/03 08:32:41;;;;;;;5.03;1.20;;;10.70;99.90;;;;;;4825158;29;20771;-57
2023/05/03 08:35:12;;;;;;;2.53;1.10;;;10.70;99.90;;;;;;4825490;29;20613;-57
2023/05/03 08:37:42;;;;;;;3.13;1.40;;;10.80;99.90;;;;;;4824979;29;20347;-57
2023/05/03 08:40:12;;;;;;;2.47;1.13;;;10.70;99.90;;;;;;4825216;29;20696;-57
2023/05/03 08:42:42;;;;;;;5.13;1.60;;;10.70;99.90;;;;;;4824800;29;20230;-57
2023/05/03 08:45:13;;;;;;;3.97;1.40;;;10.80;99.90;;;;;;4824858;29;20243;-57
2023/05/03 08:47:43;;;;;;;3.33;1.20;;;10.80;99.90;;;;;;4824615;29;20652;-57
2023/05/03 08:50:13;;;;;;;3.00;1.20;;;10.90;99.90;;;;;;4825095;29;20589;-58
2023/05/03 08:52:43;;;;;;;2.37;1.20;;;11.00;99.90;;;;;;4824509;29;20250;-57
2023/05/03 08:55:11;;;;;;;3.00;1.30;;;10.90;99.90;;;;;;4824997;29;20290;-57
2023/05/03 08:57:39;;;;;;;2.00;1.30;;;10.80;99.90;;;;;;4824815;29;20714;-58
2023/05/03 09:00:11;;;;;;;3.20;1.30;;;10.70;99.90;;;;;;4824595;29;20242;-58
2023/05/03 09:02:41;;;;;;;4.63;1.83;;;10.80;99.90;;;;;;4824310;29;20715;-58
2023/05/03 09:05:32;;;;;;;2.80;1.30;;;10.80;99.90;;;;;;4824742;29;20238;-57
2023/05/03 09:08:02;;;;;;;3.00;1.40;;;10.80;99.90;;;;;;4824797;29;20250;-57
2023/05/03 09:10:30;;;;;;;2.63;1.33;;;10.80;99.90;;;;;;4824624;29;20242;-57
2023/05/03 09:12:59;;;;;;;3.87;1.40;;;10.90;99.90;;;;;;4824642;29;20239;-57
2023/05/03 09:15:29;;;;;;;6.27;1.60;;;11.00;99.90;;;;;;4824586;29;20241;-57
2023/05/03 09:18:14;;;;;;;2.17;1.10;;;11.20;99.90;;;;;;4824683;29;20262;-57
2023/05/03 09:20:50;;;;;;;3.10;1.70;;;11.50;99.90;;;;;;4824481;29;20699;-57
2023/05/03 09:23:28;;;;;;;4.47;1.10;;;11.60;99.90;;;;;;4824326;29;20271;-57
2023/05/03 09:25:57;;;;;;;3.27;1.30;;;11.60;99.90;;;;;;4824595;29;20238;-57
2023/05/03 09:28:25;;;;;;;4.50;1.50;;;11.70;99.90;;;;;;4824563;29;20245;-55
2023/05/03 09:31:05;;;;;;;5.50;1.60;;;11.80;99.90;;;;;;4823778;29;20253;-57
2023/05/03 09:33:35;;;;;;;3.43;1.40;;;11.70;99.90;;;;;;4824251;29;20269;-58
2023/05/03 09:36:05;;;;;;;3.23;1.30;;;11.50;99.90;;;;;;4824242;29;20242;-58
2023/05/03 09:38:35;;;;;;;3.17;1.30;;;11.40;99.90;;;;;;4824333;29;20708;-57
2023/05/03 09:41:05;;;;;;;3.63;1.43;;;11.40;99.90;;;;;;4824158;29;20231;-57
2023/05/03 09:43:34;;;;;;;4.70;1.43;;;11.40;99.90;;;;;;4823975;29;20223;-57
2023/05/03 09:46:10;;;;;;;1.90;1.20;;;11.40;99.90;;;;;;4824352;29;20242;-57
2023/05/03 09:48:40;;;;;;;4.70;1.40;;;11.40;99.90;;;;;;4823908;29;20237;-57
2023/05/03 09:51:10;;;;;;;2.67;1.43;;;11.30;99.90;;;;;;4824270;29;20241;-57
2023/05/03 09:53:40;;;;;;;3.87;1.60;;;11.50;99.90;;;;;;4823766;29;20307;-57
2023/05/03 09:56:12;;;;;;;3.20;1.40;;;11.60;99.90;;;;;;4824008;29;20261;-57
2023/05/03 09:58:40;;;;;;;3.23;1.30;;;11.60;99.90;;;;;;4824068;29;20775;-57
2023/05/03 10:01:09;;;;;;;1.90;1.20;;;11.70;99.90;;;;;;4826182;29;20768;-57
2023/05/03 10:03:42;;;;;;;4.53;1.70;;;11.60;99.90;;;;;;4826938;29;20255;-57
2023/05/03 10:06:26;;;;;;;4.73;1.37;;;11.40;99.90;;;;;;4827295;29;20243;-57
2023/05/03 10:09:02;;;;;;;3.37;1.43;;;11.30;99.90;;;;;;4827565;29;20743;-57
2023/05/03 10:11:30;;;;;;;6.50;1.63;;;11.20;99.90;;;;;;4827375;29;20699;-58
2023/05/03 10:13:58;;;;;;;4.13;1.33;;;11.30;99.90;;;;;;4827060;29;20247;-57
2023/05/03 10:16:31;;;;;;;3.47;1.50;;;11.30;99.90;;;;;;4827037;29;20595;-55
2023/05/03 10:19:09;;;;;;;3.90;1.47;;;11.50;99.90;;;;;;4825868;29;20238;-59
2023/05/03 10:21:51;;;;;;;3.53;1.40;;;11.60;99.90;;;;;;4827176;29;20699;-57
2023/05/03 10:24:19;;;;;;;5.43;1.50;;;11.70;99.90;;;;;;4827006;29;20297;-57
2023/05/03 10:29:48;;;;;;;3.13;1.60;;;11.70;99.90;;;;;;4928388;24;20303;-57
2023/05/03 10:32:38;;;;;;;4.50;1.50;;;11.70;99.90;;;;;;4826595;29;20276;-58
2023/05/03 10:35:10;;;;;;;3.30;1.40;;;11.80;99.90;;;;;;4821143;29;20706;-51
2023/05/03 10:37:41;;;;;;;4.17;1.60;;;11.90;99.90;;;;;;4811260;29;20231;-56
2023/05/03 10:40:12;;;;;;;2.77;1.47;;;11.80;99.90;;;;;;4813796;29;20742;-56
2023/05/03 10:42:44;;;;;;;4.03;1.77;;;11.80;99.90;;;;;;4811892;29;20231;-57
2023/05/03 10:45:27;;;;;;;4.13;2.00;;;11.90;99.90;;;;;;4810392;29;20239;-57
2023/05/03 10:48:19;;;;;;;6.13;1.70;;;11.80;99.90;;;;;;4811586;29;20762;-57
2023/05/03 10:50:50;;;;;;;4.17;1.67;;;11.90;99.90;;;;;;4810557;29;20381;-54
2023/05/03 10:53:43;;;;;;;4.83;1.50;;;12.10;99.90;;;;;;4810612;29;20737;-56
2023/05/03 10:56:14;;;;;;;2.47;1.50;;;12.10;99.90;;;;;;4800371;29;20581;-55
2023/05/03 10:58:43;;;;;;;3.07;1.60;;;12.30;99.90;;;;;;4810831;29;20239;-57
2023/05/03 11:01:13;;;;;;;2.77;1.40;;;12.40;99.90;;;;;;4809618;29;20624;-56
2023/05/03 11:03:50;;;;;;;3.97;1.60;;;12.70;99.90;;;;;;4809239;29;20310;-55
2023/05/03 11:06:34;;;;;;;4.93;1.60;;;12.60;99.90;;;;;;4810861;29;20237;-55
2023/05/03 11:09:05;;;;;;;4.10;1.70;;;12.40;99.90;;;;;;4810609;29;20235;-55
2023/05/03 11:11:34;;;;;;;4.03;2.00;;;12.30;99.90;;;;;;4810453;29;20242;-57
2023/05/03 11:14:03;;;;;;;3.93;1.53;;;12.30;99.90;;;;;;4809206;29;20235;-57
2023/05/03 11:16:31;;;;;;;3.63;1.50;;;12.50;99.90;;;;;;4811413;29;20245;-58
2023/05/03 11:19:01;;;;;;;3.17;1.83;;;12.60;99.90;;;;;;4810198;29;20234;-57
2023/05/03 11:21:30;;;;;;;5.87;1.50;;;12.70;99.90;;;;;;4810731;29;20238;-55
2023/05/03 11:24:02;;;;;;;5.20;1.90;;;12.60;99.90;;;;;;4812890;29;20305;-55
2023/05/03 11:26:35;;;;;;;4.00;1.77;;;12.30;99.90;;;;;;4813317;29;20715;-56
2023/05/03 11:29:03;;;;;;;3.40;1.40;;;12.20;99.90;;;;;;4811780;29;20754;-54
2023/05/03 11:31:32;;;;;;;4.03;1.70;;;12.10;99.90;;;;;;4810027;29;20333;-52
2023/05/03 11:34:00;;;;;;;3.53;1.90;;;12.20;99.90;;;;;;4808033;29;20251;-52
2023/05/03 11:36:29;;;;;;;4.33;1.70;;;12.40;99.90;;;;;;4811528;29;20266;-55
2023/05/03 11:39:00;;;;;;;3.27;1.50;;;12.60;99.90;;;;;;4814099;29;21124;-56
2023/05/03 11:41:28;;;;;;;2.80;1.50;;;12.60;99.90;;;;;;4815956;29;20235;-53
2023/05/03 11:43:57;;;;;;;3.30;1.63;;;12.80;99.90;;;;;;4814097;29;20781;-55
2023/05/03 11:46:41;;;;;;;4.70;1.87;;;12.90;99.90;;;;;;4809685;29;20859;-56
2023/05/03 11:49:12;;;;;;;2.77;1.60;;;12.80;99.90;;;;;;4809027;29;20240;-55
2023/05/03 11:51:40;;;;;;;5.70;1.90;;;12.80;99.90;;;;;;4810153;29;20327;-56
2023/05/03 11:54:11;;;;;;;2.63;1.50;;;13.00;99.90;;;;;;4804958;29;20254;-50
2023/05/03 11:56:56;;;;;;;2.50;1.57;;;13.20;99.90;;;;;;4807369;29;20232;-58
2023/05/03 11:59:35;;;;;;;2.80;1.57;;;13.40;99.90;;;;;;4809914;29;20281;-56
2023/05/03 12:02:04;;;;;;;3.40;1.90;;;13.60;99.90;;;;;;4810347;29;20243;-52
2023/05/03 12:04:33;;;;;;;2.23;1.63;;;13.50;99.90;;;;;;4806429;29;20748;-53
2023/05/03 12:07:01;;;;;;;2.40;1.43;;;13.60;99.90;;;;;;4809681;29;20235;-56
2023/05/03 12:09:33;;;;;;;2.97;1.90;;;13.40;99.90;;;;;;4811771;29;20242;-56
2023/05/03 12:12:03;;;;;;;4.17;1.83;;;13.40;99.90;;;;;;4813303;29;20741;-56
2023/05/03 12:14:56;;;;;;;2.67;1.60;;;13.40;99.90;;;;;;4804080;29;20704;-55
2023/05/03 12:17:36;;;;;;;3.17;1.80;;;13.20;99.90;;;;;;4810211;29;20235;-56
2023/05/03 12:20:17;;;;;;;3.93;1.70;;;13.30;99.90;;;;;;4810465;29;20500;-55
2023/05/03 12:22:49;;;;;;;5.03;1.63;;;13.20;99.90;;;;;;4809888;29;20703;-57
2023/05/03 12:25:21;;;;;;;2.03;1.50;;;13.40;99.90;;;;;;4804188;29;20930;-57
2023/05/03 12:27:54;;;;;;;2.97;1.63;;;13.60;99.90;;;;;;4808484;29;20238;-54
2023/05/03 12:30:42;;;;;;;4.33;1.93;;;13.70;99.90;;;;;;4808852;29;20724;-56
2023/05/03 12:33:14;;;;;;;6.20;1.60;;;13.60;99.90;;;;;;4810223;29;20320;-57
2023/05/03 12:35:43;;;;;;;3.73;1.70;;;13.30;99.90;;;;;;4806391;29;20238;-52
2023/05/03 12:38:15;;;;;;;2.40;1.63;;;13.20;99.90;;;;;;4810472;29;20792;-54
2023/05/03 12:40:46;;;;;;;5.00;2.10;;;13.20;99.90;;;;;;4810000;29;20264;-55
2023/05/03 12:43:15;;;;;;;3.87;1.70;;;13.50;99.90;;;;;;4809031;29;20316;-55
2023/05/03 12:45:43;;;;;;;3.17;1.90;;;13.50;99.90;;;;;;4805160;29;20787;-56
2023/05/03 12:48:25;;;;;;;4.60;1.97;;;13.30;99.90;;;;;;4811245;29;20599;-54
2023/05/03 12:50:54;;;;;;;3.70;1.87;;;13.20;99.90;;;;;;4810978;29;20917;-55
2023/05/03 12:53:42;;;;;;;4.03;1.60;;;13.00;99.90;;;;;;4809951;29;20228;-55
2023/05/03 12:56:15;;;;;;;3.17;1.80;;;12.90;99.90;;;;;;4804708;29;20236;-56
2023/05/03 12:58:48;;;;;;;4.60;1.80;;;13.00;99.90;;;;;;4811014;29;20344;-57
2023/05/03 13:01:20;;;;;;;4.63;1.93;;;13.10;99.90;;;;;;4809227;29;20634;-56
2023/05/03 13:04:08;;;;;;;3.30;1.67;;;13.50;99.90;;;;;;4805850;29;20231;-56
2023/05/03 13:06:57;;;;;;;2.50;1.60;;;13.60;99.90;;;;;;4810188;29;20236;-56
2023/05/03 13:09:28;;;;;;;2.53;1.70;;;13.70;99.90;;;;;;4810941;29;20875;-58
2023/05/03 13:12:19;;;;;;;3.90;1.60;;;13.80;99.90;;;;;;4809775;29;20270;-55
2023/05/03 13:14:48;;;;;;;2.57;2.10;;;13.60;99.90;;;;;;4804883;29;20327;-57